sensor_id;sensor_type;location;lat;lon;timestamp;P1;durP1;ratioP1;P2;durP2;ratioP2
7128;SDS011;3606;52.930;8.644;2023-02-28T00:00:12;4.23;;;3.50;;
7128;SDS011;3606;52.930;8.644;2023-02-28T00:02:39;5.73;;;4.43;;
7128;SDS011;3606;52.930;8.644;2023-02-28T00:05:08;10.47;;;4.53;;
7128;SDS011;3606;52.930;8.644;2023-02-28T00:07:34;7.47;;;4.10;;
7128;SDS011;3606;52.930;8.644;2023-02-28T00:10:00;7.33;;;5.00;;
7128;SDS011;3606;52.930;8.644;2023-02-28T00:12:26;7.63;;;4.23;;
7128;SDS011;3606;52.930;8.644;2023-02-28T00:14:52;10.03;;;4.77;;
7128;SDS011;3606;52.930;8.644;2023-02-28T00:17:18;7.20;;;4.33;;
7128;SDS011;3606;52.930;8.644;2023-02-28T00:19:46;8.53;;;4.73;;
7128;SDS011;3606;52.930;8.644;2023-02-28T00:22:13;8.10;;;5.10;;
7128;SDS011;3606;52.930;8.644;2023-02-28T00:24:40;6.43;;;3.77;;
7128;SDS011;3606;52.930;8.644;2023-02-28T00:27:06;10.23;;;4.50;;
7128;SDS011;3606;52.930;8.644;2023-02-28T00:29:32;6.00;;;4.23;;
7128;SDS011;3606;52.930;8.644;2023-02-28T00:31:57;6.40;;;4.03;;
7128;SDS011;3606;52.930;8.644;2023-02-28T00:34:23;7.73;;;3.97;;
7128;SDS011;3606;52.930;8.644;2023-02-28T00:36:48;5.90;;;4.37;;
7128;SDS011;3606;52.930;8.644;2023-02-28T00:39:14;8.33;;;4.30;;
7128;SDS011;3606;52.930;8.644;2023-02-28T00:41:40;8.27;;;4.20;;
7128;SDS011;3606;52.930;8.644;2023-02-28T00:44:06;8.70;;;4.67;;
7128;SDS011;3606;52.930;8.644;2023-02-28T00:46:31;6.50;;;4.97;;
7128;SDS011;3606;52.930;8.644;2023-02-28T00:48:57;9.97;;;4.80;;
7128;SDS011;3606;52.930;8.644;2023-02-28T00:51:22;8.43;;;4.83;;
7128;SDS011;3606;52.930;8.644;2023-02-28T00:53:48;8.83;;;4.93;;
7128;SDS011;3606;52.930;8.644;2023-02-28T00:56:14;4.73;;;4.07;;
7128;SDS011;3606;52.930;8.644;2023-02-28T00:58:39;6.73;;;4.97;;
7128;SDS011;3606;52.930;8.644;2023-02-28T01:01:05;9.90;;;4.43;;
7128;SDS011;3606;52.930;8.644;2023-02-28T01:03:31;7.27;;;4.37;;
7128;SDS011;3606;52.930;8.644;2023-02-28T01:05:57;7.20;;;4.50;;
7128;SDS011;3606;52.930;8.644;2023-02-28T01:08:22;8.70;;;4.43;;
7128;SDS011;3606;52.930;8.644;2023-02-28T01:10:48;9.03;;;5.00;;
7128;SDS011;3606;52.930;8.644;2023-02-28T01:13:14;7.57;;;4.90;;
7128;SDS011;3606;52.930;8.644;2023-02-28T01:15:40;7.07;;;4.57;;
7128;SDS011;3606;52.930;8.644;2023-02-28T01:18:09;12.67;;;4.90;;
7128;SDS011;3606;52.930;8.644;2023-02-28T01:20:36;6.77;;;4.77;;
7128;SDS011;3606;52.930;8.644;2023-02-28T01:23:02;7.40;;;4.47;;
7128;SDS011;3606;52.930;8.644;2023-02-28T01:25:27;9.93;;;5.13;;
7128;SDS011;3606;52.930;8.644;2023-02-28T01:27:53;7.07;;;4.70;;
7128;SDS011;3606;52.930;8.644;2023-02-28T01:30:19;8.93;;;4.83;;
7128;SDS011;3606;52.930;8.644;2023-02-28T01:32:44;8.30;;;4.73;;
7128;SDS011;3606;52.930;8.644;2023-02-28T01:35:10;8.47;;;4.93;;
7128;SDS011;3606;52.930;8.644;2023-02-28T01:37:36;6.77;;;5.03;;
7128;SDS011;3606;52.930;8.644;2023-02-28T01:40:01;9.63;;;5.37;;
7128;SDS011;3606;52.930;8.644;2023-02-28T01:42:27;7.80;;;5.07;;
7128;SDS011;3606;52.930;8.644;2023-02-28T01:47:50;9.70;;;4.83;;
7128;SDS011;3606;52.930;8.644;2023-02-28T01:50:21;10.20;;;5.00;;
7128;SDS011;3606;52.930;8.644;2023-02-28T01:52:49;11.43;;;5.40;;
7128;SDS011;3606;52.930;8.644;2023-02-28T01:55:17;7.43;;;4.43;;
7128;SDS011;3606;52.930;8.644;2023-02-28T01:57:46;8.13;;;5.87;;
7128;SDS011;3606;52.930;8.644;2023-02-28T02:00:18;8.30;;;5.73;;
7128;SDS011;3606;52.930;8.644;2023-02-28T02:02:47;10.40;;;5.77;;
7128;SDS011;3606;52.930;8.644;2023-02-28T02:05:17;10.13;;;5.17;;
7128;SDS011;3606;52.930;8.644;2023-02-28T02:07:45;7.40;;;5.47;;
7128;SDS011;3606;52.930;8.644;2023-02-28T02:10:16;8.13;;;5.77;;
7128;SDS011;3606;52.930;8.644;2023-02-28T02:15:52;8.37;;;5.00;;
7128;SDS011;3606;52.930;8.644;2023-02-28T02:42:28;7.00;;;5.23;;
7128;SDS011;3606;52.930;8.644;2023-02-28T02:45:02;7.50;;;5.30;;
7128;SDS011;3606;52.930;8.644;2023-02-28T02:47:37;6.20;;;4.73;;
7128;SDS011;3606;52.930;8.644;2023-02-28T02:50:05;11.13;;;5.87;;
7128;SDS011;3606;52.930;8.644;2023-02-28T02:52:38;7.03;;;4.70;;
7128;SDS011;3606;52.930;8.644;2023-02-28T02:55:07;9.03;;;5.07;;
7128;SDS011;3606;52.930;8.644;2023-02-28T02:57:38;6.23;;;4.67;;
7128;SDS011;3606;52.930;8.644;2023-02-28T03:00:16;7.87;;;4.67;;
7128;SDS011;3606;52.930;8.644;2023-02-28T03:02:45;7.93;;;4.57;;
7128;SDS011;3606;52.930;8.644;2023-02-28T03:05:15;4.83;;;4.30;;
7128;SDS011;3606;52.930;8.644;2023-02-28T03:07:46;9.17;;;4.97;;
7128;SDS011;3606;52.930;8.644;2023-02-28T03:10:28;6.67;;;4.63;;
7128;SDS011;3606;52.930;8.644;2023-02-28T03:13:16;5.93;;;4.67;;
7128;SDS011;3606;52.930;8.644;2023-02-28T03:21:26;7.50;;;4.20;;
7128;SDS011;3606;52.930;8.644;2023-02-28T03:24:14;5.57;;;4.00;;
7128;SDS011;3606;52.930;8.644;2023-02-28T03:27:02;6.20;;;4.20;;
7128;SDS011;3606;52.930;8.644;2023-02-28T03:29:34;7.83;;;4.80;;
7128;SDS011;3606;52.930;8.644;2023-02-28T03:35:21;5.60;;;4.17;;
7128;SDS011;3606;52.930;8.644;2023-02-28T03:38:06;10.73;;;4.17;;
7128;SDS011;3606;52.930;8.644;2023-02-28T03:40:38;4.33;;;3.80;;
7128;SDS011;3606;52.930;8.644;2023-02-28T03:43:10;5.97;;;3.83;;
7128;SDS011;3606;52.930;8.644;2023-02-28T03:45:40;6.07;;;4.33;;
7128;SDS011;3606;52.930;8.644;2023-02-28T03:50:47;6.63;;;4.10;;
7128;SDS011;3606;52.930;8.644;2023-02-28T03:53:28;6.30;;;4.00;;
7128;SDS011;3606;52.930;8.644;2023-02-28T03:56:01;6.60;;;4.33;;
7128;SDS011;3606;52.930;8.644;2023-02-28T03:58:42;7.30;;;4.60;;
7128;SDS011;3606;52.930;8.644;2023-02-28T04:01:19;4.63;;;3.80;;
7128;SDS011;3606;52.930;8.644;2023-02-28T04:03:49;5.90;;;4.47;;
7128;SDS011;3606;52.930;8.644;2023-02-28T04:06:19;9.07;;;4.40;;
7128;SDS011;3606;52.930;8.644;2023-02-28T04:08:46;4.63;;;4.17;;
7128;SDS011;3606;52.930;8.644;2023-02-28T04:13:50;8.13;;;3.73;;
7128;SDS011;3606;52.930;8.644;2023-02-28T04:16:16;5.07;;;3.90;;
7128;SDS011;3606;52.930;8.644;2023-02-28T04:18:42;4.23;;;3.83;;
7128;SDS011;3606;52.930;8.644;2023-02-28T04:21:11;5.10;;;3.87;;
7128;SDS011;3606;52.930;8.644;2023-02-28T04:23:37;6.50;;;4.40;;
7128;SDS011;3606;52.930;8.644;2023-02-28T04:26:03;4.70;;;3.93;;
7128;SDS011;3606;52.930;8.644;2023-02-28T04:28:29;6.43;;;4.50;;
7128;SDS011;3606;52.930;8.644;2023-02-28T04:30:58;4.40;;;3.90;;
7128;SDS011;3606;52.930;8.644;2023-02-28T04:33:28;5.03;;;4.27;;
7128;SDS011;3606;52.930;8.644;2023-02-28T04:38:30;5.83;;;4.23;;
7128;SDS011;3606;52.930;8.644;2023-02-28T04:40:58;6.47;;;4.37;;
7128;SDS011;3606;52.930;8.644;2023-02-28T04:43:25;9.13;;;4.30;;
7128;SDS011;3606;52.930;8.644;2023-02-28T04:45:53;6.47;;;4.47;;
7128;SDS011;3606;52.930;8.644;2023-02-28T04:48:27;5.17;;;4.03;;
7128;SDS011;3606;52.930;8.644;2023-02-28T04:51:04;7.53;;;3.93;;
7128;SDS011;3606;52.930;8.644;2023-02-28T04:53:31;4.70;;;3.90;;
7128;SDS011;3606;52.930;8.644;2023-02-28T04:55:57;4.93;;;3.40;;
7128;SDS011;3606;52.930;8.644;2023-02-28T04:58:23;6.87;;;4.17;;
7128;SDS011;3606;52.930;8.644;2023-02-28T05:00:50;5.60;;;3.87;;
7128;SDS011;3606;52.930;8.644;2023-02-28T05:03:19;4.27;;;3.50;;
7128;SDS011;3606;52.930;8.644;2023-02-28T05:05:48;5.57;;;3.90;;
7128;SDS011;3606;52.930;8.644;2023-02-28T05:08:13;4.77;;;3.47;;
7128;SDS011;3606;52.930;8.644;2023-02-28T05:10:39;5.63;;;4.03;;
7128;SDS011;3606;52.930;8.644;2023-02-28T05:13:04;7.67;;;4.20;;
7128;SDS011;3606;52.930;8.644;2023-02-28T05:15:30;5.37;;;3.70;;
7128;SDS011;3606;52.930;8.644;2023-02-28T05:17:56;5.13;;;4.03;;
7128;SDS011;3606;52.930;8.644;2023-02-28T05:20:21;6.37;;;3.97;;
7128;SDS011;3606;52.930;8.644;2023-02-28T05:22:47;6.80;;;4.03;;
7128;SDS011;3606;52.930;8.644;2023-02-28T05:25:14;5.30;;;3.60;;
7128;SDS011;3606;52.930;8.644;2023-02-28T05:27:42;6.23;;;3.90;;
7128;SDS011;3606;52.930;8.644;2023-02-28T05:30:09;4.67;;;3.47;;
7128;SDS011;3606;52.930;8.644;2023-02-28T05:32:36;5.67;;;3.87;;
7128;SDS011;3606;52.930;8.644;2023-02-28T05:35:02;5.87;;;3.73;;
7128;SDS011;3606;52.930;8.644;2023-02-28T05:37:29;5.10;;;3.87;;
7128;SDS011;3606;52.930;8.644;2023-02-28T05:39:54;5.70;;;4.30;;
7128;SDS011;3606;52.930;8.644;2023-02-28T05:42:20;8.57;;;4.17;;
7128;SDS011;3606;52.930;8.644;2023-02-28T05:44:46;6.53;;;4.47;;
7128;SDS011;3606;52.930;8.644;2023-02-28T05:47:11;4.83;;;4.00;;
7128;SDS011;3606;52.930;8.644;2023-02-28T05:49:40;7.77;;;4.93;;
7128;SDS011;3606;52.930;8.644;2023-02-28T05:52:06;7.60;;;4.20;;
7128;SDS011;3606;52.930;8.644;2023-02-28T05:54:32;5.60;;;4.27;;
7128;SDS011;3606;52.930;8.644;2023-02-28T05:56:57;5.80;;;4.37;;
7128;SDS011;3606;52.930;8.644;2023-02-28T05:59:23;5.47;;;3.83;;
7128;SDS011;3606;52.930;8.644;2023-02-28T06:01:48;5.70;;;4.33;;
7128;SDS011;3606;52.930;8.644;2023-02-28T06:04:15;11.87;;;4.77;;
7128;SDS011;3606;52.930;8.644;2023-02-28T06:06:44;6.63;;;4.60;;
7128;SDS011;3606;52.930;8.644;2023-02-28T06:09:10;7.87;;;5.43;;
7128;SDS011;3606;52.930;8.644;2023-02-28T06:11:36;8.47;;;4.40;;
7128;SDS011;3606;52.930;8.644;2023-02-28T06:14:04;6.40;;;5.40;;
7128;SDS011;3606;52.930;8.644;2023-02-28T06:16:31;4.83;;;4.33;;
7128;SDS011;3606;52.930;8.644;2023-02-28T06:18:59;5.57;;;4.40;;
7128;SDS011;3606;52.930;8.644;2023-02-28T06:21:26;4.80;;;4.10;;
7128;SDS011;3606;52.930;8.644;2023-02-28T06:23:53;7.17;;;4.90;;
7128;SDS011;3606;52.930;8.644;2023-02-28T06:26:19;6.93;;;5.23;;
7128;SDS011;3606;52.930;8.644;2023-02-28T06:28:45;5.87;;;4.87;;
7128;SDS011;3606;52.930;8.644;2023-02-28T06:31:12;8.00;;;5.07;;
7128;SDS011;3606;52.930;8.644;2023-02-28T06:33:40;6.27;;;4.47;;
7128;SDS011;3606;52.930;8.644;2023-02-28T06:36:06;5.17;;;4.43;;
7128;SDS011;3606;52.930;8.644;2023-02-28T06:38:34;8.00;;;4.60;;
7128;SDS011;3606;52.930;8.644;2023-02-28T06:41:00;9.03;;;4.80;;
7128;SDS011;3606;52.930;8.644;2023-02-28T06:43:30;5.80;;;4.33;;
7128;SDS011;3606;52.930;8.644;2023-02-28T06:45:58;6.93;;;4.50;;
7128;SDS011;3606;52.930;8.644;2023-02-28T06:48:26;5.43;;;4.43;;
7128;SDS011;3606;52.930;8.644;2023-02-28T06:50:52;8.57;;;5.00;;
7128;SDS011;3606;52.930;8.644;2023-02-28T06:53:26;7.63;;;4.73;;
7128;SDS011;3606;52.930;8.644;2023-02-28T06:55:51;6.17;;;4.80;;
7128;SDS011;3606;52.930;8.644;2023-02-28T06:58:17;12.13;;;4.80;;
7128;SDS011;3606;52.930;8.644;2023-02-28T07:00:44;7.37;;;4.93;;
7128;SDS011;3606;52.930;8.644;2023-02-28T07:03:11;6.60;;;4.50;;
7128;SDS011;3606;52.930;8.644;2023-02-28T07:05:38;9.23;;;5.33;;
7128;SDS011;3606;52.930;8.644;2023-02-28T07:08:04;7.73;;;5.30;;
7128;SDS011;3606;52.930;8.644;2023-02-28T07:10:31;5.57;;;4.73;;
7128;SDS011;3606;52.930;8.644;2023-02-28T07:12:57;8.40;;;5.43;;
7128;SDS011;3606;52.930;8.644;2023-02-28T07:15:23;8.70;;;5.57;;
7128;SDS011;3606;52.930;8.644;2023-02-28T07:17:49;8.83;;;5.53;;
7128;SDS011;3606;52.930;8.644;2023-02-28T07:20:15;5.73;;;4.50;;
7128;SDS011;3606;52.930;8.644;2023-02-28T07:22:41;7.17;;;5.60;;
7128;SDS011;3606;52.930;8.644;2023-02-28T07:25:06;6.33;;;5.43;;
7128;SDS011;3606;52.930;8.644;2023-02-28T07:27:33;6.53;;;5.10;;
7128;SDS011;3606;52.930;8.644;2023-02-28T07:29:59;7.30;;;5.43;;
7128;SDS011;3606;52.930;8.644;2023-02-28T07:32:26;8.03;;;6.00;;
7128;SDS011;3606;52.930;8.644;2023-02-28T07:34:52;6.80;;;5.83;;
7128;SDS011;3606;52.930;8.644;2023-02-28T07:37:18;7.60;;;5.90;;
7128;SDS011;3606;52.930;8.644;2023-02-28T07:39:44;8.50;;;6.80;;
7128;SDS011;3606;52.930;8.644;2023-02-28T07:42:10;10.27;;;6.17;;
7128;SDS011;3606;52.930;8.644;2023-02-28T07:44:37;7.00;;;5.43;;
7128;SDS011;3606;52.930;8.644;2023-02-28T07:47:09;6.90;;;5.07;;
7128;SDS011;3606;52.930;8.644;2023-02-28T07:49:38;8.40;;;5.33;;
7128;SDS011;3606;52.930;8.644;2023-02-28T07:52:05;7.53;;;4.90;;
7128;SDS011;3606;52.930;8.644;2023-02-28T07:54:32;4.60;;;4.20;;
7128;SDS011;3606;52.930;8.644;2023-02-28T07:56:58;7.13;;;4.47;;
7128;SDS011;3606;52.930;8.644;2023-02-28T07:59:24;5.77;;;3.97;;
7128;SDS011;3606;52.930;8.644;2023-02-28T08:01:49;5.13;;;3.90;;
7128;SDS011;3606;52.930;8.644;2023-02-28T08:04:16;5.17;;;3.70;;
7128;SDS011;3606;52.930;8.644;2023-02-28T08:06:42;4.43;;;3.57;;
7128;SDS011;3606;52.930;8.644;2023-02-28T08:09:08;8.07;;;4.70;;
7128;SDS011;3606;52.930;8.644;2023-02-28T08:11:33;4.40;;;3.80;;
7128;SDS011;3606;52.930;8.644;2023-02-28T08:13:59;3.87;;;3.47;;
7128;SDS011;3606;52.930;8.644;2023-02-28T08:16:25;7.40;;;3.80;;
7128;SDS011;3606;52.930;8.644;2023-02-28T08:18:50;8.20;;;5.17;;
7128;SDS011;3606;52.930;8.644;2023-02-28T08:21:17;7.23;;;3.97;;
7128;SDS011;3606;52.930;8.644;2023-02-28T08:23:46;10.17;;;4.27;;
7128;SDS011;3606;52.930;8.644;2023-02-28T08:26:12;6.60;;;4.20;;
7128;SDS011;3606;52.930;8.644;2023-02-28T08:28:38;6.47;;;3.97;;
7128;SDS011;3606;52.930;8.644;2023-02-28T08:31:08;5.00;;;3.30;;
7128;SDS011;3606;52.930;8.644;2023-02-28T08:33:35;6.03;;;2.73;;
7128;SDS011;3606;52.930;8.644;2023-02-28T08:36:01;4.27;;;2.90;;
7128;SDS011;3606;52.930;8.644;2023-02-28T08:38:27;3.43;;;2.60;;
7128;SDS011;3606;52.930;8.644;2023-02-28T08:40:59;3.23;;;2.07;;
7128;SDS011;3606;52.930;8.644;2023-02-28T08:43:27;2.50;;;1.97;;
7128;SDS011;3606;52.930;8.644;2023-02-28T08:45:53;1.90;;;1.80;;
7128;SDS011;3606;52.930;8.644;2023-02-28T08:48:23;4.20;;;2.13;;
7128;SDS011;3606;52.930;8.644;2023-02-28T08:51:02;2.77;;;2.00;;
7128;SDS011;3606;52.930;8.644;2023-02-28T08:53:30;3.50;;;2.00;;
7128;SDS011;3606;52.930;8.644;2023-02-28T08:56:00;2.13;;;1.70;;
7128;SDS011;3606;52.930;8.644;2023-02-28T08:58:28;3.40;;;1.80;;
7128;SDS011;3606;52.930;8.644;2023-02-28T09:00:53;1.53;;;1.43;;
7128;SDS011;3606;52.930;8.644;2023-02-28T09:03:19;2.63;;;1.40;;
7128;SDS011;3606;52.930;8.644;2023-02-28T09:06:01;2.10;;;1.53;;
7128;SDS011;3606;52.930;8.644;2023-02-28T09:08:28;3.57;;;1.70;;
7128;SDS011;3606;52.930;8.644;2023-02-28T09:10:57;3.57;;;1.73;;
7128;SDS011;3606;52.930;8.644;2023-02-28T09:13:25;3.30;;;1.90;;
7128;SDS011;3606;52.930;8.644;2023-02-28T09:15:51;3.67;;;1.50;;
7128;SDS011;3606;52.930;8.644;2023-02-28T09:18:16;2.40;;;2.00;;
7128;SDS011;3606;52.930;8.644;2023-02-28T09:20:42;2.43;;;1.57;;
7128;SDS011;3606;52.930;8.644;2023-02-28T09:23:08;2.00;;;1.70;;
7128;SDS011;3606;52.930;8.644;2023-02-28T09:25:35;1.50;;;1.40;;
7128;SDS011;3606;52.930;8.644;2023-02-28T09:28:02;2.57;;;1.43;;
7128;SDS011;3606;52.930;8.644;2023-02-28T09:30:28;1.70;;;1.60;;
7128;SDS011;3606;52.930;8.644;2023-02-28T09:32:55;2.30;;;1.70;;
7128;SDS011;3606;52.930;8.644;2023-02-28T09:35:21;1.50;;;1.40;;
7128;SDS011;3606;52.930;8.644;2023-02-28T09:37:48;2.33;;;1.30;;
7128;SDS011;3606;52.930;8.644;2023-02-28T09:40:16;3.20;;;1.53;;
7128;SDS011;3606;52.930;8.644;2023-02-28T09:42:45;1.50;;;1.03;;
7128;SDS011;3606;52.930;8.644;2023-02-28T09:47:54;1.50;;;1.33;;
7128;SDS011;3606;52.930;8.644;2023-02-28T09:50:33;2.60;;;1.10;;
7128;SDS011;3606;52.930;8.644;2023-02-28T09:53:05;1.60;;;1.10;;
7128;SDS011;3606;52.930;8.644;2023-02-28T09:55:39;2.87;;;1.10;;
7128;SDS011;3606;52.930;8.644;2023-02-28T09:58:18;1.83;;;1.50;;
7128;SDS011;3606;52.930;8.644;2023-02-28T10:00:56;1.70;;;1.43;;
7128;SDS011;3606;52.930;8.644;2023-02-28T10:03:58;1.43;;;1.33;;
7128;SDS011;3606;52.930;8.644;2023-02-28T10:06:32;1.57;;;1.33;;
7128;SDS011;3606;52.930;8.644;2023-02-28T10:09:07;1.53;;;1.40;;
7128;SDS011;3606;52.930;8.644;2023-02-28T10:11:40;3.00;;;1.70;;
7128;SDS011;3606;52.930;8.644;2023-02-28T10:16:48;2.33;;;1.70;;
7128;SDS011;3606;52.930;8.644;2023-02-28T10:25:36;1.80;;;1.60;;
7128;SDS011;3606;52.930;8.644;2023-02-28T10:28:14;1.90;;;1.60;;
7128;SDS011;3606;52.930;8.644;2023-02-28T10:30:43;2.13;;;1.60;;
7128;SDS011;3606;52.930;8.644;2023-02-28T10:33:54;2.67;;;1.60;;
7128;SDS011;3606;52.930;8.644;2023-02-28T10:36:02;3.17;;;1.63;;
7128;SDS011;3606;52.930;8.644;2023-02-28T10:38:38;1.43;;;1.33;;
7128;SDS011;3606;52.930;8.644;2023-02-28T10:41:08;2.30;;;1.87;;
7128;SDS011;3606;52.930;8.644;2023-02-28T10:43:38;1.83;;;1.30;;
7128;SDS011;3606;52.930;8.644;2023-02-28T10:46:11;2.10;;;1.60;;
7128;SDS011;3606;52.930;8.644;2023-02-28T10:48:57;2.03;;;1.50;;
7128;SDS011;3606;52.930;8.644;2023-02-28T10:51:33;5.07;;;1.70;;
7128;SDS011;3606;52.930;8.644;2023-02-28T10:54:03;3.30;;;2.17;;
7128;SDS011;3606;52.930;8.644;2023-02-28T10:56:30;2.07;;;1.67;;
7128;SDS011;3606;52.930;8.644;2023-02-28T10:59:22;1.50;;;1.30;;
7128;SDS011;3606;52.930;8.644;2023-02-28T11:01:53;2.47;;;1.70;;
7128;SDS011;3606;52.930;8.644;2023-02-28T11:07:04;2.17;;;1.33;;
7128;SDS011;3606;52.930;8.644;2023-02-28T11:09:54;1.33;;;1.20;;
7128;SDS011;3606;52.930;8.644;2023-02-28T11:14:54;1.43;;;1.27;;
7128;SDS011;3606;52.930;8.644;2023-02-28T11:17:27;2.20;;;1.40;;
7128;SDS011;3606;52.930;8.644;2023-02-28T11:20:03;1.53;;;1.20;;
7128;SDS011;3606;52.930;8.644;2023-02-28T11:22:32;1.77;;;1.23;;
7128;SDS011;3606;52.930;8.644;2023-02-28T11:25:06;3.77;;;1.83;;
7128;SDS011;3606;52.930;8.644;2023-02-28T11:27:50;1.80;;;1.17;;
7128;SDS011;3606;52.930;8.644;2023-02-28T11:30:28;1.37;;;1.10;;
7128;SDS011;3606;52.930;8.644;2023-02-28T11:36:27;1.20;;;1.10;;
7128;SDS011;3606;52.930;8.644;2023-02-28T11:38:56;1.77;;;1.43;;
7128;SDS011;3606;52.930;8.644;2023-02-28T12:00:35;2.53;;;1.87;;
7128;SDS011;3606;52.930;8.644;2023-02-28T12:06:14;4.03;;;3.30;;
7128;SDS011;3606;52.930;8.644;2023-02-28T12:08:48;3.60;;;2.33;;
7128;SDS011;3606;52.930;8.644;2023-02-28T12:14:18;1.43;;;1.20;;
7128;SDS011;3606;52.930;8.644;2023-02-28T12:17:32;1.40;;;1.30;;
7128;SDS011;3606;52.930;8.644;2023-02-28T12:25:21;1.30;;;1.23;;
7128;SDS011;3606;52.930;8.644;2023-02-28T12:27:48;1.37;;;1.27;;
7128;SDS011;3606;52.930;8.644;2023-02-28T12:30:25;1.60;;;1.50;;
7128;SDS011;3606;52.930;8.644;2023-02-28T12:32:56;2.20;;;1.30;;
7128;SDS011;3606;52.930;8.644;2023-02-28T12:35:37;1.67;;;1.33;;
7128;SDS011;3606;52.930;8.644;2023-02-28T12:38:28;1.63;;;1.20;;
7128;SDS011;3606;52.930;8.644;2023-02-28T12:43:37;1.60;;;1.50;;
7128;SDS011;3606;52.930;8.644;2023-02-28T12:46:09;3.00;;;2.03;;
7128;SDS011;3606;52.930;8.644;2023-02-28T12:48:56;2.20;;;1.20;;
7128;SDS011;3606;52.930;8.644;2023-02-28T12:51:24;3.30;;;1.93;;
7128;SDS011;3606;52.930;8.644;2023-02-28T12:59:14;4.03;;;1.67;;
7128;SDS011;3606;52.930;8.644;2023-02-28T13:04:34;1.47;;;1.37;;
7128;SDS011;3606;52.930;8.644;2023-02-28T13:09:32;2.07;;;1.50;;
7128;SDS011;3606;52.930;8.644;2023-02-28T13:11:58;2.33;;;1.87;;
7128;SDS011;3606;52.930;8.644;2023-02-28T13:14:28;2.13;;;1.70;;
7128;SDS011;3606;52.930;8.644;2023-02-28T13:19:32;1.60;;;1.50;;
7128;SDS011;3606;52.930;8.644;2023-02-28T13:22:00;1.83;;;1.40;;
7128;SDS011;3606;52.930;8.644;2023-02-28T13:24:38;1.70;;;1.60;;
7128;SDS011;3606;52.930;8.644;2023-02-28T13:29:30;1.40;;;1.30;;
7128;SDS011;3606;52.930;8.644;2023-02-28T13:34:40;3.53;;;1.63;;
7128;SDS011;3606;52.930;8.644;2023-02-28T13:39:56;5.87;;;2.47;;
7128;SDS011;3606;52.930;8.644;2023-02-28T14:01:07;2.90;;;2.17;;
7128;SDS011;3606;52.930;8.644;2023-02-28T14:04:06;1.93;;;1.47;;
7128;SDS011;3606;52.930;8.644;2023-02-28T14:07:03;1.50;;;1.40;;
7128;SDS011;3606;52.930;8.644;2023-02-28T14:09:31;2.27;;;1.77;;
7128;SDS011;3606;52.930;8.644;2023-02-28T14:15:28;2.40;;;1.80;;
7128;SDS011;3606;52.930;8.644;2023-02-28T14:17:59;2.30;;;1.50;;
7128;SDS011;3606;52.930;8.644;2023-02-28T14:20:29;1.67;;;1.50;;
7128;SDS011;3606;52.930;8.644;2023-02-28T14:23:18;6.13;;;2.13;;
7128;SDS011;3606;52.930;8.644;2023-02-28T14:26:07;1.77;;;1.60;;
7128;SDS011;3606;52.930;8.644;2023-02-28T14:33:59;1.30;;;1.20;;
7128;SDS011;3606;52.930;8.644;2023-02-28T14:36:41;1.80;;;1.60;;
7128;SDS011;3606;52.930;8.644;2023-02-28T14:39:11;1.97;;;1.70;;
7128;SDS011;3606;52.930;8.644;2023-02-28T14:41:40;1.87;;;1.70;;
7128;SDS011;3606;52.930;8.644;2023-02-28T14:46:48;2.50;;;1.70;;
7128;SDS011;3606;52.930;8.644;2023-02-28T14:49:21;1.57;;;1.47;;
7128;SDS011;3606;52.930;8.644;2023-02-28T14:54:40;2.77;;;1.27;;
7128;SDS011;3606;52.930;8.644;2023-02-28T14:57:12;2.03;;;1.80;;
7128;SDS011;3606;52.930;8.644;2023-02-28T15:00:00;1.57;;;1.47;;
7128;SDS011;3606;52.930;8.644;2023-02-28T15:02:29;5.37;;;1.80;;
7128;SDS011;3606;52.930;8.644;2023-02-28T15:04:59;1.47;;;1.37;;
7128;SDS011;3606;52.930;8.644;2023-02-28T15:07:47;1.80;;;1.40;;
7128;SDS011;3606;52.930;8.644;2023-02-28T15:10:22;1.47;;;1.20;;
7128;SDS011;3606;52.930;8.644;2023-02-28T15:12:59;2.07;;;1.40;;
7128;SDS011;3606;52.930;8.644;2023-02-28T15:15:50;1.90;;;1.30;;
7128;SDS011;3606;52.930;8.644;2023-02-28T15:21:20;3.03;;;1.47;;
7128;SDS011;3606;52.930;8.644;2023-02-28T15:23:49;2.27;;;2.00;;
7128;SDS011;3606;52.930;8.644;2023-02-28T15:26:19;1.23;;;1.17;;
7128;SDS011;3606;52.930;8.644;2023-02-28T15:28:48;1.40;;;1.30;;
7128;SDS011;3606;52.930;8.644;2023-02-28T15:31:20;1.20;;;1.03;;
7128;SDS011;3606;52.930;8.644;2023-02-28T15:33:57;1.73;;;1.50;;
7128;SDS011;3606;52.930;8.644;2023-02-28T15:36:31;1.47;;;1.37;;
7128;SDS011;3606;52.930;8.644;2023-02-28T15:38:58;1.50;;;1.30;;
7128;SDS011;3606;52.930;8.644;2023-02-28T15:41:26;2.20;;;1.77;;
7128;SDS011;3606;52.930;8.644;2023-02-28T15:46:53;1.80;;;1.50;;
7128;SDS011;3606;52.930;8.644;2023-02-28T15:49:24;1.83;;;1.60;;
7128;SDS011;3606;52.930;8.644;2023-02-28T15:51:50;1.63;;;1.50;;
7128;SDS011;3606;52.930;8.644;2023-02-28T15:54:23;1.87;;;1.40;;
7128;SDS011;3606;52.930;8.644;2023-02-28T15:56:52;1.37;;;1.23;;
7128;SDS011;3606;52.930;8.644;2023-02-28T15:59:30;1.60;;;1.50;;
7128;SDS011;3606;52.930;8.644;2023-02-28T16:02:13;2.33;;;1.90;;
7128;SDS011;3606;52.930;8.644;2023-02-28T16:04:59;1.67;;;1.57;;
7128;SDS011;3606;52.930;8.644;2023-02-28T16:07:34;1.77;;;1.63;;
7128;SDS011;3606;52.930;8.644;2023-02-28T16:10:02;1.40;;;1.30;;
7128;SDS011;3606;52.930;8.644;2023-02-28T16:12:32;1.97;;;1.40;;
7128;SDS011;3606;52.930;8.644;2023-02-28T16:15:05;4.47;;;1.50;;
7128;SDS011;3606;52.930;8.644;2023-02-28T16:17:41;1.60;;;1.50;;
7128;SDS011;3606;52.930;8.644;2023-02-28T16:20:28;1.87;;;1.50;;
7128;SDS011;3606;52.930;8.644;2023-02-28T16:22:55;2.43;;;1.70;;
7128;SDS011;3606;52.930;8.644;2023-02-28T16:25:54;1.97;;;1.73;;
7128;SDS011;3606;52.930;8.644;2023-02-28T16:28:20;1.33;;;1.23;;
7128;SDS011;3606;52.930;8.644;2023-02-28T16:30:56;2.20;;;1.50;;
7128;SDS011;3606;52.930;8.644;2023-02-28T16:33:21;1.83;;;1.67;;
7128;SDS011;3606;52.930;8.644;2023-02-28T16:35:47;1.70;;;1.60;;
7128;SDS011;3606;52.930;8.644;2023-02-28T16:38:13;2.63;;;1.97;;
7128;SDS011;3606;52.930;8.644;2023-02-28T16:40:38;1.83;;;1.70;;
7128;SDS011;3606;52.930;8.644;2023-02-28T16:43:08;2.00;;;1.57;;
7128;SDS011;3606;52.930;8.644;2023-02-28T16:45:40;3.70;;;1.60;;
7128;SDS011;3606;52.930;8.644;2023-02-28T16:48:07;1.83;;;1.53;;
7128;SDS011;3606;52.930;8.644;2023-02-28T16:50:39;1.60;;;1.50;;
7128;SDS011;3606;52.930;8.644;2023-02-28T16:53:05;1.23;;;1.10;;
7128;SDS011;3606;52.930;8.644;2023-02-28T16:55:30;1.57;;;1.47;;
7128;SDS011;3606;52.930;8.644;2023-02-28T16:57:57;1.83;;;1.50;;
7128;SDS011;3606;52.930;8.644;2023-02-28T17:00:25;1.80;;;1.57;;
7128;SDS011;3606;52.930;8.644;2023-02-28T17:02:52;3.30;;;1.60;;
7128;SDS011;3606;52.930;8.644;2023-02-28T17:05:19;2.00;;;1.63;;
7128;SDS011;3606;52.930;8.644;2023-02-28T17:07:45;3.60;;;1.43;;
7128;SDS011;3606;52.930;8.644;2023-02-28T17:10:16;1.83;;;1.70;;
7128;SDS011;3606;52.930;8.644;2023-02-28T17:12:42;1.80;;;1.70;;
7128;SDS011;3606;52.930;8.644;2023-02-28T17:15:08;2.33;;;1.77;;
7128;SDS011;3606;52.930;8.644;2023-02-28T17:17:38;1.53;;;1.43;;
7128;SDS011;3606;52.930;8.644;2023-02-28T17:20:05;2.10;;;1.70;;
7128;SDS011;3606;52.930;8.644;2023-02-28T17:22:31;3.20;;;1.97;;
7128;SDS011;3606;52.930;8.644;2023-02-28T17:24:57;2.60;;;1.73;;
7128;SDS011;3606;52.930;8.644;2023-02-28T17:27:23;1.80;;;1.40;;
7128;SDS011;3606;52.930;8.644;2023-02-28T17:29:50;3.20;;;1.80;;
7128;SDS011;3606;52.930;8.644;2023-02-28T17:32:16;2.07;;;1.87;;
7128;SDS011;3606;52.930;8.644;2023-02-28T17:34:42;3.50;;;1.90;;
7128;SDS011;3606;52.930;8.644;2023-02-28T17:37:09;3.87;;;1.93;;
7128;SDS011;3606;52.930;8.644;2023-02-28T17:39:34;3.07;;;1.90;;
7128;SDS011;3606;52.930;8.644;2023-02-28T17:42:01;3.77;;;2.00;;
7128;SDS011;3606;52.930;8.644;2023-02-28T17:44:26;1.70;;;1.60;;
7128;SDS011;3606;52.930;8.644;2023-02-28T17:46:53;2.90;;;2.17;;
7128;SDS011;3606;52.930;8.644;2023-02-28T17:49:19;2.50;;;2.00;;
7128;SDS011;3606;52.930;8.644;2023-02-28T17:51:45;3.33;;;2.30;;
7128;SDS011;3606;52.930;8.644;2023-02-28T17:54:12;2.60;;;2.00;;
7128;SDS011;3606;52.930;8.644;2023-02-28T17:56:39;2.13;;;1.77;;
7128;SDS011;3606;52.930;8.644;2023-02-28T17:59:05;2.17;;;1.97;;
7128;SDS011;3606;52.930;8.644;2023-02-28T18:01:30;3.33;;;2.30;;
7128;SDS011;3606;52.930;8.644;2023-02-28T18:03:56;3.73;;;2.13;;
7128;SDS011;3606;52.930;8.644;2023-02-28T18:06:23;3.07;;;2.00;;
7128;SDS011;3606;52.930;8.644;2023-02-28T18:09:19;2.60;;;2.00;;
7128;SDS011;3606;52.930;8.644;2023-02-28T18:11:53;2.47;;;1.83;;